createdAt,value
2022-12-25T00:01:12.429Z,52.17
2022-12-25T00:03:41.330Z,38.72
2022-12-25T00:06:11.671Z,55.55
2022-12-25T00:08:42.148Z,49.22
2022-12-25T00:11:14.717Z,39.35
2022-12-25T00:13:43.565Z,42.40
2022-12-25T00:16:16.282Z,60.53
2022-12-25T00:18:44.726Z,47.95
2022-12-25T00:21:15.177Z,49.40
2022-12-25T00:23:44.098Z,43.05
2022-12-25T00:26:15.516Z,54.28
2022-12-25T00:28:44.280Z,46.83
2022-12-25T00:31:15.683Z,43.90
2022-12-25T00:33:47.635Z,39.53
2022-12-25T00:36:20.812Z,41.55
2022-12-25T00:38:49.283Z,40.72
2022-12-25T00:41:41.197Z,46.90
2022-12-25T00:44:12.665Z,48.63
2022-12-25T00:46:42.210Z,46.80
2022-12-25T00:49:11.364Z,45.88
2022-12-25T00:51:41.153Z,42.97
2022-12-25T00:54:09.927Z,44.03
2022-12-25T00:56:38.633Z,51.83
2022-12-25T00:59:06.925Z,41.33
2022-12-25T01:01:35.853Z,50.50
2022-12-25T01:04:04.182Z,50.60
2022-12-25T01:06:33.159Z,49.78
2022-12-25T01:09:20.811Z,49.78
2022-12-25T01:11:49.119Z,45.22
2022-12-25T01:14:17.945Z,43.38
2022-12-25T01:16:46.282Z,41.88
2022-12-25T01:19:17.460Z,38.67
2022-12-25T01:21:45.692Z,52.50
2022-12-25T01:24:15.471Z,42.58
2022-12-25T01:26:43.726Z,52.22
2022-12-25T01:29:11.962Z,44.00
2022-12-25T01:31:40.335Z,50.92
2022-12-25T01:34:08.621Z,49.50
2022-12-25T01:36:36.939Z,45.67
2022-12-25T01:39:06.046Z,44.00
2022-12-25T01:41:36.050Z,45.33
2022-12-25T01:44:08.490Z,54.08
2022-12-25T01:46:37.547Z,45.00
2022-12-25T01:49:09.594Z,60.13
2022-12-25T01:51:42.754Z,52.75
2022-12-25T01:54:18.031Z,42.30
2022-12-25T01:56:49.497Z,43.17
2022-12-25T01:59:21.170Z,43.75
2022-12-25T02:01:50.081Z,47.53
2022-12-25T02:04:38.955Z,44.13
2022-12-25T02:07:11.465Z,47.20
2022-12-25T02:09:39.935Z,43.88
2022-12-25T02:12:16.206Z,47.03
2022-12-25T02:14:44.778Z,47.20
2022-12-25T02:17:20.512Z,48.40
2022-12-25T02:20:17.817Z,45.88
2022-12-25T02:22:59.477Z,43.83
2022-12-25T02:25:47.237Z,40.22
2022-12-25T02:28:23.181Z,43.80
2022-12-25T02:30:58.172Z,49.53
2022-12-25T02:33:50.740Z,40.70
2022-12-25T02:36:24.346Z,51.88
2022-12-25T02:39:29.310Z,52.92
2022-12-25T02:42:02.770Z,52.70
2022-12-25T02:44:57.771Z,55.22
2022-12-25T02:47:45.102Z,44.75
2022-12-25T02:50:33.002Z,44.55
2022-12-25T02:53:20.270Z,46.47
2022-12-25T02:56:09.577Z,40.63
2022-12-25T02:59:01.125Z,46.97
2022-12-25T03:01:50.602Z,40.22
2022-12-25T03:04:40.470Z,42.08
2022-12-25T03:07:16.225Z,46.78
2022-12-25T03:10:09.986Z,39.85
2022-12-25T03:12:43.841Z,44.90
2022-12-25T03:15:31.765Z,42.83
2022-12-25T03:18:06.041Z,40.65
2022-12-25T03:20:53.267Z,38.50
2022-12-25T03:23:43.766Z,43.38
2022-12-25T03:26:29.724Z,42.38
2022-12-25T03:28:58.023Z,45.03
2022-12-25T03:31:35.540Z,43.47
2022-12-25T03:34:40.233Z,48.25
2022-12-25T03:37:46.007Z,37.42
2022-12-25T03:40:42.841Z,47.10
2022-12-25T03:43:41.534Z,40.58
2022-12-25T03:46:34.419Z,36.80
2022-12-25T03:49:28.252Z,35.55
2022-12-25T03:52:17.386Z,36.10
2022-12-25T03:55:06.384Z,37.42
2022-12-25T03:57:53.907Z,32.50
2022-12-25T04:00:54.470Z,36.45
2022-12-25T04:03:40.459Z,28.77
2022-12-25T04:06:42.912Z,36.00
2022-12-25T04:09:28.794Z,36.25
2022-12-25T04:12:14.473Z,32.15
2022-12-25T04:15:00.572Z,39.00
2022-12-25T04:17:46.893Z,31.23
2022-12-25T04:20:33.198Z,34.50
2022-12-25T04:23:20.306Z,29.85
2022-12-25T04:26:06.075Z,33.38
2022-12-25T04:28:51.658Z,32.15
2022-12-25T04:31:37.705Z,30.02
2022-12-25T04:34:23.593Z,23.67
2022-12-25T04:36:51.936Z,23.10
2022-12-25T04:39:21.680Z,27.90
2022-12-25T04:41:50.016Z,23.67
2022-12-25T04:44:18.242Z,29.50
2022-12-25T04:46:46.560Z,28.92
2022-12-25T04:49:15.039Z,20.50
2022-12-25T04:51:43.635Z,21.17
2022-12-25T04:54:12.050Z,20.35
2022-12-25T04:56:45.843Z,28.27
2022-12-25T04:59:14.897Z,17.13
2022-12-25T05:01:43.452Z,22.38
2022-12-25T05:04:15.217Z,21.33
2022-12-25T05:06:43.482Z,21.73
2022-12-25T05:09:11.921Z,22.15
2022-12-25T05:11:41.760Z,26.63
2022-12-25T05:14:10.187Z,20.70
2022-12-25T05:16:38.769Z,21.17
2022-12-25T05:19:07.127Z,22.20
2022-12-25T05:21:35.434Z,18.63
2022-12-25T05:24:03.794Z,20.77
2022-12-25T05:26:32.068Z,16.25
2022-12-25T05:29:01.851Z,23.00
2022-12-25T05:31:30.230Z,17.08
2022-12-25T05:33:58.741Z,21.35
2022-12-25T05:36:27.091Z,19.35
2022-12-25T05:38:55.904Z,19.17
2022-12-25T05:41:25.907Z,24.25
2022-12-25T05:43:56.346Z,27.45
2022-12-25T05:46:26.054Z,21.30
2022-12-25T05:48:54.523Z,25.30
2022-12-25T05:51:22.897Z,21.70
2022-12-25T05:53:51.257Z,19.30
2022-12-25T05:56:19.549Z,20.92
2022-12-25T05:58:47.896Z,19.33
2022-12-25T06:01:20.495Z,21.63
2022-12-25T06:03:50.569Z,23.52
2022-12-25T06:06:19.262Z,19.95
2022-12-25T06:08:48.143Z,23.95
2022-12-25T06:11:17.132Z,18.58
2022-12-25T06:13:45.469Z,22.60
2022-12-25T06:16:14.111Z,19.77
2022-12-25T06:18:47.575Z,20.38
2022-12-25T06:21:17.901Z,20.88
2022-12-25T06:23:46.745Z,25.80
2022-12-25T06:26:18.921Z,23.27
2022-12-25T06:28:47.945Z,23.50
2022-12-25T06:31:19.526Z,30.27
2022-12-25T06:33:48.017Z,21.73
2022-12-25T06:36:20.607Z,24.75
2022-12-25T06:38:49.287Z,20.80
2022-12-25T06:41:20.549Z,21.58
2022-12-25T06:43:50.517Z,18.70
2022-12-25T06:46:20.301Z,19.70
2022-12-25T06:48:49.723Z,18.98
2022-12-25T06:51:21.284Z,23.70
2022-12-25T06:53:51.028Z,18.42
2022-12-25T06:56:21.543Z,19.23
2022-12-25T06:58:51.945Z,16.67
2022-12-25T07:01:23.642Z,18.38
2022-12-25T07:03:56.193Z,21.17
2022-12-25T07:06:26.051Z,17.83
2022-12-25T07:08:54.676Z,18.95
2022-12-25T07:11:23.637Z,17.92
2022-12-25T07:13:52.023Z,23.20
2022-12-25T07:16:20.561Z,19.40
2022-12-25T07:18:49.212Z,17.65
2022-12-25T07:21:20.611Z,16.38
2022-12-25T07:23:51.543Z,21.90
2022-12-25T07:26:28.209Z,18.85
2022-12-25T07:28:57.252Z,18.90
2022-12-25T07:31:27.636Z,20.90
2022-12-25T07:33:56.210Z,22.38
2022-12-25T07:36:24.582Z,19.95
2022-12-25T07:39:16.364Z,13.00
2022-12-25T07:41:47.519Z,15.40
2022-12-25T07:44:16.318Z,15.55
2022-12-25T07:46:44.918Z,14.27
2022-12-25T07:49:16.195Z,17.55
2022-12-25T07:51:44.581Z,14.55
2022-12-25T07:54:15.169Z,13.60
2022-12-25T07:56:43.495Z,15.23
2022-12-25T07:59:11.838Z,17.67
2022-12-25T08:01:40.409Z,12.10
2022-12-25T08:04:11.866Z,14.88
2022-12-25T08:06:40.420Z,11.55
2022-12-25T08:09:11.465Z,17.13
2022-12-25T08:11:46.417Z,18.73
2022-12-25T08:14:15.499Z,17.17
2022-12-25T08:16:44.707Z,14.68
2022-12-25T08:19:14.604Z,17.95
2022-12-25T08:21:42.957Z,14.70
2022-12-25T08:24:11.788Z,16.77
2022-12-25T08:26:42.013Z,19.80
2022-12-25T08:29:10.419Z,16.95
2022-12-25T08:31:45.698Z,13.60
2022-12-25T08:34:14.949Z,20.98
2022-12-25T08:36:43.408Z,17.33
2022-12-25T08:39:14.100Z,17.10
2022-12-25T08:41:43.830Z,20.75
2022-12-25T08:44:14.153Z,21.40
2022-12-25T08:46:42.577Z,19.10
2022-12-25T08:49:11.328Z,21.98
2022-12-25T08:51:53.146Z,19.67
2022-12-25T08:54:21.570Z,18.38
2022-12-25T08:56:51.248Z,18.27
2022-12-25T08:59:19.600Z,18.65
2022-12-25T09:01:48.060Z,22.98
2022-12-25T09:04:16.743Z,19.52
2022-12-25T09:06:47.694Z,25.90
2022-12-25T09:09:16.170Z,20.05
2022-12-25T09:11:44.480Z,23.48
2022-12-25T09:14:14.762Z,17.75
2022-12-25T09:16:43.080Z,18.42
2022-12-25T09:19:11.615Z,20.70
2022-12-25T09:21:39.920Z,19.67
2022-12-25T09:24:09.609Z,15.07
2022-12-25T09:26:39.151Z,18.58
2022-12-25T09:29:07.836Z,16.00
2022-12-25T09:31:37.840Z,15.88
2022-12-25T09:34:06.228Z,17.63
2022-12-25T09:36:34.721Z,15.73
2022-12-25T09:39:03.188Z,17.38
2022-12-25T09:41:35.825Z,21.65
2022-12-25T09:44:09.450Z,19.42
2022-12-25T09:46:45.285Z,16.48
2022-12-25T09:49:22.911Z,17.48
2022-12-25T09:51:57.433Z,17.35
2022-12-25T09:54:38.979Z,18.08
2022-12-25T09:57:11.897Z,23.05
2022-12-25T09:59:41.024Z,17.88
2022-12-25T10:02:41.067Z,18.70
2022-12-25T10:05:45.837Z,20.42
2022-12-25T10:08:26.474Z,19.63
2022-12-25T10:11:04.980Z,20.17
2022-12-25T10:13:59.638Z,18.10
2022-12-25T10:16:37.534Z,17.42
2022-12-25T10:19:27.451Z,25.88
2022-12-25T10:22:01.895Z,22.58
2022-12-25T10:24:36.772Z,23.63
2022-12-25T10:27:14.774Z,20.83
2022-12-25T10:29:44.161Z,16.00
2022-12-25T10:32:12.591Z,17.33
2022-12-25T10:34:43.814Z,18.80
2022-12-25T10:37:13.445Z,21.23
2022-12-25T10:39:46.669Z,20.65
2022-12-25T10:42:35.413Z,22.65
2022-12-25T10:45:08.094Z,22.15
2022-12-25T10:47:42.061Z,21.83
2022-12-25T10:50:19.860Z,19.85
2022-12-25T10:52:57.512Z,20.63
2022-12-25T10:55:29.212Z,17.60
2022-12-25T10:57:59.054Z,16.88
2022-12-25T11:00:30.443Z,21.42
2022-12-25T11:02:59.644Z,19.60
2022-12-25T11:05:32.723Z,17.23
2022-12-25T11:08:03.302Z,24.88
2022-12-25T11:10:36.431Z,20.15
2022-12-25T11:13:08.174Z,19.77
2022-12-25T11:15:40.708Z,21.17
2022-12-25T11:18:21.570Z,23.48
2022-12-25T11:20:54.019Z,20.00
2022-12-25T11:23:25.655Z,19.35
2022-12-25T11:25:58.756Z,19.13
2022-12-25T11:28:27.970Z,18.30
2022-12-25T11:31:02.945Z,19.70
2022-12-25T11:33:38.006Z,17.05
2022-12-25T11:36:19.144Z,20.58
2022-12-25T11:38:47.936Z,20.52
2022-12-25T11:41:20.918Z,24.70
2022-12-25T11:43:54.064Z,20.02
2022-12-25T11:46:27.997Z,16.40
2022-12-25T11:49:01.133Z,14.75
2022-12-25T11:51:38.760Z,17.65
2022-12-25T11:54:19.052Z,17.45
2022-12-25T11:56:47.580Z,18.27
2022-12-25T11:59:22.825Z,21.10
2022-12-25T12:01:57.938Z,19.88
2022-12-25T12:04:36.869Z,17.05
2022-12-25T12:07:24.962Z,21.10
2022-12-25T12:10:05.396Z,19.73
2022-12-25T12:12:48.290Z,17.85
2022-12-25T12:15:28.244Z,17.75
2022-12-25T12:17:57.210Z,19.80
2022-12-25T12:20:32.268Z,18.73
2022-12-25T12:23:04.659Z,17.08
2022-12-25T12:25:33.349Z,16.27
2022-12-25T12:28:05.829Z,19.13
2022-12-25T12:30:51.004Z,14.32
2022-12-25T12:33:22.131Z,15.45
2022-12-25T12:35:50.976Z,12.13
2022-12-25T12:38:31.499Z,20.15
2022-12-25T12:41:05.096Z,18.15
2022-12-25T12:43:39.732Z,19.88
2022-12-25T12:46:22.983Z,17.90
2022-12-25T12:49:09.779Z,17.33
2022-12-25T12:51:39.952Z,20.85
2022-12-25T12:54:40.530Z,21.27
2022-12-25T12:57:25.431Z,16.83
2022-12-25T12:59:54.330Z,17.42
2022-12-25T13:03:08.241Z,15.75
2022-12-25T13:05:42.098Z,17.02
2022-12-25T13:08:34.620Z,16.88
2022-12-25T13:11:19.934Z,18.90
2022-12-25T13:13:51.349Z,17.20
2022-12-25T13:16:26.752Z,18.10
2022-12-25T13:18:57.491Z,18.02
2022-12-25T13:21:28.207Z,22.65
2022-12-25T13:24:01.565Z,19.33
2022-12-25T13:26:34.131Z,21.27
2022-12-25T13:29:06.459Z,17.48
2022-12-25T13:31:41.896Z,17.52
2022-12-25T13:34:30.756Z,18.90
2022-12-25T13:37:00.621Z,24.00
2022-12-25T13:39:30.016Z,20.27
2022-12-25T13:42:09.549Z,26.73
2022-12-25T13:44:46.919Z,22.90
2022-12-25T13:47:34.365Z,21.10
2022-12-25T13:50:16.137Z,19.05
2022-12-25T13:52:44.942Z,22.20
2022-12-25T13:55:15.813Z,23.33
2022-12-25T13:57:47.876Z,21.33
2022-12-25T14:00:22.658Z,20.05
2022-12-25T14:02:52.436Z,22.30
2022-12-25T14:05:27.728Z,20.73
2022-12-25T14:07:59.237Z,21.15
2022-12-25T14:10:30.831Z,21.85
2022-12-25T14:13:06.807Z,23.75
2022-12-25T14:15:37.953Z,35.00
2022-12-25T14:18:07.209Z,37.35
2022-12-25T14:20:40.097Z,29.67
2022-12-25T14:23:13.574Z,30.15
2022-12-25T14:25:45.783Z,22.67
2022-12-25T14:28:26.799Z,24.48
2022-12-25T14:30:55.756Z,23.42
2022-12-25T14:33:26.778Z,24.95
2022-12-25T14:35:55.333Z,31.50
2022-12-25T14:38:29.500Z,26.25
2022-12-25T14:41:03.617Z,33.47
2022-12-25T14:43:34.645Z,28.90
2022-12-25T14:46:06.337Z,27.13
2022-12-25T14:48:35.114Z,28.95
2022-12-25T14:51:08.619Z,24.30
2022-12-25T14:53:41.988Z,25.58
2022-12-25T14:56:11.668Z,26.92
2022-12-25T14:58:45.181Z,28.00
2022-12-25T15:01:24.048Z,24.75
2022-12-25T15:03:53.078Z,28.77
2022-12-25T15:06:24.961Z,31.08
2022-12-25T15:08:58.805Z,25.52
2022-12-25T15:11:27.269Z,29.02
2022-12-25T15:13:58.410Z,30.58
2022-12-25T15:16:29.849Z,69.25
2022-12-25T15:19:00.559Z,34.80
2022-12-25T15:21:32.650Z,36.80
2022-12-25T15:24:02.514Z,38.95
2022-12-25T15:26:33.540Z,36.67
2022-12-25T15:29:03.157Z,35.50
2022-12-25T15:31:33.806Z,33.70
2022-12-25T15:34:05.180Z,28.45
2022-12-25T15:36:35.693Z,28.33
2022-12-25T15:39:04.071Z,26.60
2022-12-25T15:41:54.248Z,35.15
2022-12-25T15:44:24.586Z,35.25
2022-12-25T15:46:54.063Z,31.38
2022-12-25T15:49:22.887Z,34.13
2022-12-25T15:51:52.640Z,36.72
2022-12-25T15:54:21.516Z,32.50
2022-12-25T15:56:52.611Z,28.83
2022-12-25T15:59:23.728Z,31.92
2022-12-25T16:01:55.080Z,30.00
2022-12-25T16:04:25.392Z,33.65
2022-12-25T16:06:54.263Z,27.15
2022-12-25T16:09:28.211Z,40.58
2022-12-25T16:11:56.581Z,48.63
2022-12-25T16:14:26.267Z,46.60
2022-12-25T16:16:54.805Z,39.70
2022-12-25T16:19:23.331Z,37.03
2022-12-25T16:21:51.675Z,47.00
2022-12-25T16:24:20.139Z,39.58
2022-12-25T16:26:48.469Z,42.35
2022-12-25T16:29:16.934Z,40.33
2022-12-25T16:31:46.856Z,41.65
2022-12-25T16:34:15.355Z,44.13
2022-12-25T16:36:48.210Z,34.17
2022-12-25T16:39:16.540Z,41.55
2022-12-25T16:41:44.826Z,36.67
2022-12-25T16:44:14.253Z,37.72
2022-12-25T16:46:42.666Z,41.85
2022-12-25T16:49:12.708Z,44.03
2022-12-25T16:51:41.265Z,44.05
2022-12-25T16:54:10.450Z,48.75
2022-12-25T16:56:39.080Z,51.92
2022-12-25T16:59:07.353Z,52.80
2022-12-25T17:01:36.093Z,49.47
2022-12-25T17:04:05.192Z,51.58
2022-12-25T17:06:35.012Z,45.72
2022-12-25T17:09:03.952Z,49.15
2022-12-25T17:11:33.245Z,44.47
2022-12-25T17:14:04.820Z,52.25
2022-12-25T17:16:35.075Z,54.55
2022-12-25T17:19:08.227Z,53.35
2022-12-25T17:21:38.913Z,52.22
2022-12-25T17:24:08.336Z,52.45
2022-12-25T17:26:36.768Z,49.60
2022-12-25T17:29:05.342Z,49.17
2022-12-25T17:31:34.774Z,54.25
2022-12-25T17:34:03.879Z,56.45
2022-12-25T17:36:33.057Z,51.50
2022-12-25T17:39:03.457Z,51.78
2022-12-25T17:41:32.542Z,56.65
2022-12-25T17:44:00.979Z,50.55
2022-12-25T17:46:31.213Z,54.35
2022-12-25T17:49:04.087Z,54.00
2022-12-25T17:51:33.416Z,56.20
2022-12-25T17:54:06.926Z,62.13
2022-12-25T17:56:35.372Z,69.78
2022-12-25T17:59:06.908Z,73.53
2022-12-25T18:01:36.704Z,62.83
2022-12-25T18:04:06.143Z,59.55
2022-12-25T18:06:37.271Z,64.97
2022-12-25T18:09:09.879Z,65.38
2022-12-25T18:11:41.988Z,70.03
2022-12-25T18:14:14.227Z,65.65
2022-12-25T18:16:44.815Z,534.60
2022-12-25T18:19:15.201Z,220.40
2022-12-25T18:21:43.501Z,91.35
2022-12-25T18:24:13.502Z,76.78
2022-12-25T18:26:41.835Z,80.28
2022-12-25T18:29:10.220Z,65.13
2022-12-25T18:31:38.898Z,68.45
2022-12-25T18:34:07.433Z,80.32
2022-12-25T18:36:37.008Z,77.03
2022-12-25T18:39:05.671Z,81.50
2022-12-25T18:41:56.655Z,72.85
2022-12-25T18:44:25.544Z,76.13
2022-12-25T18:46:54.761Z,70.65
2022-12-25T18:49:23.475Z,69.10
2022-12-25T18:51:53.411Z,73.55
2022-12-25T18:54:41.909Z,65.25
2022-12-25T18:57:11.892Z,140.98
2022-12-25T18:59:41.859Z,110.10
2022-12-25T19:02:12.386Z,86.38
2022-12-25T19:04:43.499Z,67.40
2022-12-25T19:07:12.452Z,72.90
2022-12-25T19:09:40.955Z,72.82
2022-12-25T19:12:09.327Z,72.38
2022-12-25T19:14:47.681Z,59.03
2022-12-25T19:17:17.028Z,62.42
2022-12-25T19:19:45.835Z,63.67
2022-12-25T19:22:14.416Z,68.85
2022-12-25T19:24:42.887Z,63.58
2022-12-25T19:27:13.912Z,63.90
2022-12-25T19:29:43.621Z,61.45
2022-12-25T19:32:12.490Z,67.68
2022-12-25T19:34:43.004Z,68.18
2022-12-25T19:37:11.655Z,65.57
2022-12-25T19:39:46.094Z,64.07
2022-12-25T19:42:15.344Z,62.83
2022-12-25T19:44:45.607Z,73.68
2022-12-25T19:47:14.344Z,68.25
2022-12-25T19:49:43.950Z,71.43
2022-12-25T19:52:17.834Z,67.03
2022-12-25T19:54:46.321Z,70.45
2022-12-25T19:57:14.930Z,62.53
2022-12-25T19:59:49.901Z,63.75
2022-12-25T20:02:18.394Z,60.30
2022-12-25T20:04:46.909Z,59.85
2022-12-25T20:07:15.509Z,57.92
2022-12-25T20:09:44.018Z,59.45
2022-12-25T20:12:14.701Z,49.20
2022-12-25T20:14:44.437Z,51.95
2022-12-25T20:17:15.948Z,54.17
2022-12-25T20:19:44.611Z,50.03
2022-12-25T20:22:13.024Z,46.70
2022-12-25T20:24:41.405Z,51.97
2022-12-25T20:27:10.296Z,53.47
2022-12-25T20:29:38.855Z,50.70
2022-12-25T20:32:09.509Z,51.78
2022-12-25T20:34:37.981Z,52.38
2022-12-25T20:37:06.341Z,46.38
2022-12-25T20:39:34.840Z,44.20
2022-12-25T20:42:03.207Z,43.08
2022-12-25T20:44:31.622Z,50.42
2022-12-25T20:47:01.152Z,41.75
2022-12-25T20:49:32.654Z,43.95
2022-12-25T20:52:05.261Z,47.90
2022-12-25T20:54:34.599Z,44.00
2022-12-25T20:57:03.113Z,49.67
2022-12-25T20:59:37.246Z,57.75
2022-12-25T21:02:06.468Z,52.05
2022-12-25T21:04:36.727Z,56.38
2022-12-25T21:07:05.280Z,54.00
2022-12-25T21:09:34.511Z,64.57
2022-12-25T21:12:02.933Z,60.85
2022-12-25T21:14:31.270Z,64.22
2022-12-25T21:16:59.682Z,57.20
2022-12-25T21:19:28.089Z,61.45
2022-12-25T21:21:57.815Z,57.58
2022-12-25T21:24:26.133Z,57.35
2022-12-25T21:26:55.213Z,55.90
2022-12-25T21:29:24.485Z,56.03
2022-12-25T21:32:12.455Z,45.55
2022-12-25T21:34:41.095Z,51.60
2022-12-25T21:37:10.789Z,45.65
2022-12-25T21:39:39.353Z,41.55
2022-12-25T21:42:07.783Z,43.00
2022-12-25T21:44:36.454Z,41.38
2022-12-25T21:47:04.997Z,38.90
2022-12-25T21:49:50.870Z,42.17
2022-12-25T21:52:20.829Z,41.15
2022-12-25T21:54:52.779Z,36.65
2022-12-25T21:57:21.668Z,35.20
2022-12-25T21:59:50.019Z,40.70
2022-12-25T22:02:18.632Z,37.53
2022-12-25T22:04:47.046Z,38.55
2022-12-25T22:07:17.818Z,40.15
2022-12-25T22:09:49.151Z,38.50
2022-12-25T22:12:36.889Z,37.10
2022-12-25T22:15:07.459Z,39.65
2022-12-25T22:17:56.880Z,37.15
2022-12-25T22:20:28.686Z,34.80
2022-12-25T22:22:57.167Z,34.97
2022-12-25T22:25:27.695Z,32.78
2022-12-25T22:27:56.793Z,37.55
2022-12-25T22:30:27.926Z,35.72
2022-12-25T22:32:56.726Z,34.08
2022-12-25T22:35:25.509Z,30.70
2022-12-25T22:37:54.870Z,34.72
2022-12-25T22:40:23.829Z,33.50
2022-12-25T22:42:56.860Z,39.75
2022-12-25T22:45:25.798Z,41.53
2022-12-25T22:47:54.142Z,37.85
2022-12-25T22:50:22.771Z,38.40
2022-12-25T22:52:51.090Z,44.15
2022-12-25T22:55:20.303Z,38.85
2022-12-25T22:57:49.065Z,39.28
2022-12-25T23:00:19.843Z,44.85
2022-12-25T23:02:48.380Z,43.63
2022-12-25T23:05:17.206Z,48.83
2022-12-25T23:07:46.020Z,50.08
2022-12-25T23:10:14.775Z,51.47
2022-12-25T23:13:00.681Z,54.95
2022-12-25T23:15:31.314Z,53.05
2022-12-25T23:18:17.018Z,60.92
2022-12-25T23:21:02.854Z,60.05
2022-12-25T23:23:48.639Z,64.45
2022-12-25T23:26:18.824Z,67.95
2022-12-25T23:29:05.156Z,62.40
2022-12-25T23:31:38.117Z,64.97
2022-12-25T23:34:08.297Z,65.93
2022-12-25T23:36:36.789Z,62.28
2022-12-25T23:39:10.083Z,68.45
2022-12-25T23:41:39.961Z,68.80
2022-12-25T23:44:08.864Z,66.05
2022-12-25T23:46:39.118Z,66.68
2022-12-25T23:49:08.880Z,76.15
2022-12-25T23:51:37.745Z,76.80
2022-12-25T23:54:06.948Z,76.97
2022-12-25T23:56:35.511Z,71.47
2022-12-25T23:59:04.023Z,80.65
